sensor_id;sensor_type;location;lat;lon;timestamp;pressure;altitude;pressure_sealevel;temperature;humidity
20620;BME280;10469;42.720;23.252;2023-04-08T00:00:23;94943.63;;;4.96;100.00
20620;BME280;10469;42.720;23.252;2023-04-08T00:02:49;94951.06;;;5.14;100.00
20620;BME280;10469;42.720;23.252;2023-04-08T00:05:15;94967.19;;;5.06;100.00
20620;BME280;10469;42.720;23.252;2023-04-08T00:07:41;94957.38;;;5.07;100.00
20620;BME280;10469;42.720;23.252;2023-04-08T00:10:07;94958.16;;;4.94;100.00
20620;BME280;10469;42.720;23.252;2023-04-08T00:12:33;94969.22;;;5.04;100.00
20620;BME280;10469;42.720;23.252;2023-04-08T00:15:01;94969.47;;;5.16;100.00
20620;BME280;10469;42.720;23.252;2023-04-08T00:17:27;94967.81;;;5.08;100.00
20620;BME280;10469;42.720;23.252;2023-04-08T00:19:52;94973.50;;;4.98;100.00
20620;BME280;10469;42.720;23.252;2023-04-08T00:22:20;94944.78;;;4.67;100.00
20620;BME280;10469;42.720;23.252;2023-04-08T00:24:46;94958.72;;;4.83;100.00
20620;BME280;10469;42.720;23.252;2023-04-08T00:27:12;94960.41;;;4.90;100.00
20620;BME280;10469;42.720;23.252;2023-04-08T00:29:38;94962.66;;;4.93;100.00
20620;BME280;10469;42.720;23.252;2023-04-08T00:32:05;94965.50;;;4.92;100.00
20620;BME280;10469;42.720;23.252;2023-04-08T00:34:31;94959.97;;;4.87;100.00
20620;BME280;10469;42.720;23.252;2023-04-08T00:36:58;94960.00;;;4.93;100.00
20620;BME280;10469;42.720;23.252;2023-04-08T00:39:23;94950.91;;;4.68;100.00
20620;BME280;10469;42.720;23.252;2023-04-08T00:41:49;94972.22;;;4.88;100.00
20620;BME280;10469;42.720;23.252;2023-04-08T00:44:15;94974.91;;;4.94;100.00
20620;BME280;10469;42.720;23.252;2023-04-08T00:46:41;94954.94;;;4.50;100.00
20620;BME280;10469;42.720;23.252;2023-04-08T00:49:07;94972.19;;;4.74;100.00
20620;BME280;10469;42.720;23.252;2023-04-08T00:51:33;94977.47;;;4.68;100.00
20620;BME280;10469;42.720;23.252;2023-04-08T00:54:03;94960.88;;;4.59;100.00
20620;BME280;10469;42.720;23.252;2023-04-08T00:56:33;94980.09;;;4.61;100.00
20620;BME280;10469;42.720;23.252;2023-04-08T00:59:00;94955.56;;;4.59;100.00
20620;BME280;10469;42.720;23.252;2023-04-08T01:01:54;94971.75;;;4.30;100.00
20620;BME280;10469;42.720;23.252;2023-04-08T01:04:34;94973.69;;;4.49;100.00
20620;BME280;10469;42.720;23.252;2023-04-08T01:07:30;94980.03;;;4.48;100.00
20620;BME280;10469;42.720;23.252;2023-04-08T01:10:02;94964.66;;;4.37;100.00
20620;BME280;10469;42.720;23.252;2023-04-08T01:12:35;94980.22;;;4.46;100.00
20620;BME280;10469;42.720;23.252;2023-04-08T01:15:07;94982.59;;;4.35;100.00
20620;BME280;10469;42.720;23.252;2023-04-08T01:17:33;94988.34;;;4.38;100.00
20620;BME280;10469;42.720;23.252;2023-04-08T01:20:01;94974.41;;;4.30;100.00
20620;BME280;10469;42.720;23.252;2023-04-08T01:22:54;94981.84;;;4.41;100.00
20620;BME280;10469;42.720;23.252;2023-04-08T01:25:25;94968.50;;;4.34;100.00
20620;BME280;10469;42.720;23.252;2023-04-08T01:27:52;94988.72;;;4.35;100.00
20620;BME280;10469;42.720;23.252;2023-04-08T01:30:23;94964.97;;;4.20;100.00
20620;BME280;10469;42.720;23.252;2023-04-08T01:32:53;94988.28;;;4.25;100.00
20620;BME280;10469;42.720;23.252;2023-04-08T01:35:20;94972.69;;;4.15;100.00
20620;BME280;10469;42.720;23.252;2023-04-08T01:37:48;94979.72;;;4.30;100.00
20620;BME280;10469;42.720;23.252;2023-04-08T01:40:15;94980.19;;;4.40;100.00
20620;BME280;10469;42.720;23.252;2023-04-08T01:42:43;94965.19;;;4.25;100.00
20620;BME280;10469;42.720;23.252;2023-04-08T01:45:10;94989.16;;;4.39;100.00
20620;BME280;10469;42.720;23.252;2023-04-08T01:47:37;94983.94;;;4.52;100.00
20620;BME280;10469;42.720;23.252;2023-04-08T01:50:05;94997.78;;;4.47;100.00
20620;BME280;10469;42.720;23.252;2023-04-08T01:52:33;94983.41;;;4.35;100.00
20620;BME280;10469;42.720;23.252;2023-04-08T01:55:00;94968.66;;;4.19;100.00
20620;BME280;10469;42.720;23.252;2023-04-08T01:57:31;94983.63;;;4.34;100.00
20620;BME280;10469;42.720;23.252;2023-04-08T02:00:05;94995.78;;;4.21;100.00
20620;BME280;10469;42.720;23.252;2023-04-08T02:02:32;94994.06;;;4.07;100.00
20620;BME280;10469;42.720;23.252;2023-04-08T02:05:00;94997.34;;;4.09;100.00
20620;BME280;10469;42.720;23.252;2023-04-08T02:07:26;94994.44;;;4.04;100.00
20620;BME280;10469;42.720;23.252;2023-04-08T02:09:52;95005.88;;;4.33;100.00
20620;BME280;10469;42.720;23.252;2023-04-08T02:12:18;95009.31;;;4.26;100.00
20620;BME280;10469;42.720;23.252;2023-04-08T02:14:43;95002.72;;;4.16;100.00
20620;BME280;10469;42.720;23.252;2023-04-08T02:19:54;95019.69;;;4.21;100.00
20620;BME280;10469;42.720;23.252;2023-04-08T02:25:12;95004.63;;;4.00;100.00
20620;BME280;10469;42.720;23.252;2023-04-08T02:27:39;95007.91;;;4.02;100.00
20620;BME280;10469;42.720;23.252;2023-04-08T02:30:09;95013.69;;;4.13;100.00
20620;BME280;10469;42.720;23.252;2023-04-08T02:32:36;95012.78;;;3.99;100.00
20620;BME280;10469;42.720;23.252;2023-04-08T02:35:04;95001.53;;;3.97;100.00
20620;BME280;10469;42.720;23.252;2023-04-08T02:37:31;95008.41;;;4.13;100.00
20620;BME280;10469;42.720;23.252;2023-04-08T02:39:59;95011.09;;;4.19;100.00
20620;BME280;10469;42.720;23.252;2023-04-08T02:42:26;95011.06;;;4.13;100.00
20620;BME280;10469;42.720;23.252;2023-04-08T02:44:51;95007.25;;;3.94;100.00
20620;BME280;10469;42.720;23.252;2023-04-08T02:47:17;95008.50;;;3.98;100.00
20620;BME280;10469;42.720;23.252;2023-04-08T02:49:43;95018.88;;;4.21;100.00
20620;BME280;10469;42.720;23.252;2023-04-08T02:52:09;95009.88;;;4.22;100.00
20620;BME280;10469;42.720;23.252;2023-04-08T02:54:35;94994.16;;;4.20;100.00
20620;BME280;10469;42.720;23.252;2023-04-08T02:57:01;94989.53;;;4.01;100.00
20620;BME280;10469;42.720;23.252;2023-04-08T02:59:27;95010.44;;;4.11;100.00
20620;BME280;10469;42.720;23.252;2023-04-08T03:01:52;95011.94;;;4.20;100.00
20620;BME280;10469;42.720;23.252;2023-04-08T03:04:18;95001.25;;;4.13;100.00
20620;BME280;10469;42.720;23.252;2023-04-08T03:06:46;95000.00;;;4.09;100.00
20620;BME280;10469;42.720;23.252;2023-04-08T03:09:11;95011.38;;;4.03;100.00
20620;BME280;10469;42.720;23.252;2023-04-08T03:11:37;94992.28;;;3.86;100.00
20620;BME280;10469;42.720;23.252;2023-04-08T03:14:03;94977.47;;;3.98;100.00
20620;BME280;10469;42.720;23.252;2023-04-08T03:16:29;95014.59;;;4.26;100.00
20620;BME280;10469;42.720;23.252;2023-04-08T03:18:55;95000.00;;;4.09;100.00
20620;BME280;10469;42.720;23.252;2023-04-08T03:21:21;95007.38;;;4.42;100.00
20620;BME280;10469;42.720;23.252;2023-04-08T03:23:46;95001.03;;;4.43;100.00
20620;BME280;10469;42.720;23.252;2023-04-08T03:26:12;94996.97;;;4.47;100.00
20620;BME280;10469;42.720;23.252;2023-04-08T03:28:38;94992.53;;;4.19;100.00
20620;BME280;10469;42.720;23.252;2023-04-08T03:31:04;94986.28;;;4.34;100.00
20620;BME280;10469;42.720;23.252;2023-04-08T03:33:30;94999.84;;;4.45;100.00
20620;BME280;10469;42.720;23.252;2023-04-08T03:35:55;95006.78;;;4.46;100.00
20620;BME280;10469;42.720;23.252;2023-04-08T03:38:21;95002.66;;;4.44;100.00
20620;BME280;10469;42.720;23.252;2023-04-08T03:40:47;95011.81;;;4.35;100.00
20620;BME280;10469;42.720;23.252;2023-04-08T03:43:13;95004.34;;;4.51;100.00
20620;BME280;10469;42.720;23.252;2023-04-08T03:45:39;95013.94;;;4.46;100.00
20620;BME280;10469;42.720;23.252;2023-04-08T03:48:05;95004.47;;;4.37;100.00
20620;BME280;10469;42.720;23.252;2023-04-08T03:50:31;95010.88;;;4.49;100.00
20620;BME280;10469;42.720;23.252;2023-04-08T03:52:56;95012.81;;;4.34;100.00
20620;BME280;10469;42.720;23.252;2023-04-08T03:55:22;95011.66;;;4.43;100.00
20620;BME280;10469;42.720;23.252;2023-04-08T03:57:48;95003.91;;;4.48;100.00
20620;BME280;10469;42.720;23.252;2023-04-08T04:00:13;95009.00;;;4.43;100.00
20620;BME280;10469;42.720;23.252;2023-04-08T04:02:39;95016.16;;;4.49;100.00
20620;BME280;10469;42.720;23.252;2023-04-08T04:05:06;95012.97;;;4.53;100.00
20620;BME280;10469;42.720;23.252;2023-04-08T04:07:31;94994.09;;;4.42;100.00
20620;BME280;10469;42.720;23.252;2023-04-08T04:09:57;95007.59;;;4.47;100.00
20620;BME280;10469;42.720;23.252;2023-04-08T04:12:23;94996.22;;;4.25;100.00
20620;BME280;10469;42.720;23.252;2023-04-08T04:14:53;95014.75;;;4.18;100.00
20620;BME280;10469;42.720;23.252;2023-04-08T04:17:20;95010.69;;;4.22;100.00
20620;BME280;10469;42.720;23.252;2023-04-08T04:19:45;95022.03;;;4.10;100.00
20620;BME280;10469;42.720;23.252;2023-04-08T04:22:11;95023.09;;;3.87;100.00
20620;BME280;10469;42.720;23.252;2023-04-08T04:24:37;95010.19;;;3.56;100.00
20620;BME280;10469;42.720;23.252;2023-04-08T04:27:03;95026.91;;;3.78;100.00
20620;BME280;10469;42.720;23.252;2023-04-08T04:29:30;95017.94;;;3.58;100.00
20620;BME280;10469;42.720;23.252;2023-04-08T04:31:56;95022.03;;;3.60;100.00
20620;BME280;10469;42.720;23.252;2023-04-08T04:34:21;95029.06;;;3.68;100.00
20620;BME280;10469;42.720;23.252;2023-04-08T04:36:49;95034.97;;;3.70;100.00
20620;BME280;10469;42.720;23.252;2023-04-08T04:39:16;95004.53;;;3.66;100.00
20620;BME280;10469;42.720;23.252;2023-04-08T04:41:42;95018.13;;;3.77;100.00
20620;BME280;10469;42.720;23.252;2023-04-08T04:44:08;95038.44;;;3.92;100.00
20620;BME280;10469;42.720;23.252;2023-04-08T04:46:34;95037.06;;;3.74;100.00
20620;BME280;10469;42.720;23.252;2023-04-08T04:49:00;95009.22;;;3.64;100.00
20620;BME280;10469;42.720;23.252;2023-04-08T04:51:26;95029.63;;;3.85;100.00
20620;BME280;10469;42.720;23.252;2023-04-08T04:53:51;95022.03;;;3.82;100.00
20620;BME280;10469;42.720;23.252;2023-04-08T04:56:17;95027.38;;;3.88;100.00
20620;BME280;10469;42.720;23.252;2023-04-08T04:58:43;94993.38;;;3.49;100.00
20620;BME280;10469;42.720;23.252;2023-04-08T05:01:09;94951.03;;;3.13;100.00
20620;BME280;10469;42.720;23.252;2023-04-08T05:03:35;94946.31;;;3.08;100.00
20620;BME280;10469;42.720;23.252;2023-04-08T05:06:01;95000.50;;;3.70;100.00
20620;BME280;10469;42.720;23.252;2023-04-08T05:08:30;95043.41;;;4.01;100.00
20620;BME280;10469;42.720;23.252;2023-04-08T05:10:55;95038.94;;;4.02;100.00
20620;BME280;10469;42.720;23.252;2023-04-08T05:13:24;95017.03;;;4.21;100.00
20620;BME280;10469;42.720;23.252;2023-04-08T05:15:50;95045.25;;;4.01;100.00
20620;BME280;10469;42.720;23.252;2023-04-08T05:18:16;95029.84;;;4.18;100.00
20620;BME280;10469;42.720;23.252;2023-04-08T05:20:48;95021.97;;;4.24;100.00
20620;BME280;10469;42.720;23.252;2023-04-08T05:28:35;95035.75;;;4.41;100.00
20620;BME280;10469;42.720;23.252;2023-04-08T05:31:00;94984.03;;;4.02;100.00
20620;BME280;10469;42.720;23.252;2023-04-08T05:33:26;94941.69;;;4.22;100.00
20620;BME280;10469;42.720;23.252;2023-04-08T05:35:52;95000.88;;;4.51;100.00
20620;BME280;10469;42.720;23.252;2023-04-08T05:38:18;95035.28;;;5.14;100.00
20620;BME280;10469;42.720;23.252;2023-04-08T05:40:43;95042.09;;;4.82;100.00
20620;BME280;10469;42.720;23.252;2023-04-08T05:43:09;95034.03;;;5.03;100.00
20620;BME280;10469;42.720;23.252;2023-04-08T05:45:35;95018.94;;;5.17;100.00
20620;BME280;10469;42.720;23.252;2023-04-08T05:48:02;95033.13;;;5.37;100.00
20620;BME280;10469;42.720;23.252;2023-04-08T05:50:29;95033.47;;;5.21;100.00
20620;BME280;10469;42.720;23.252;2023-04-08T05:52:58;95036.63;;;5.51;100.00
20620;BME280;10469;42.720;23.252;2023-04-08T05:55:26;95033.56;;;5.41;100.00
20620;BME280;10469;42.720;23.252;2023-04-08T05:57:52;95021.03;;;5.35;100.00
20620;BME280;10469;42.720;23.252;2023-04-08T06:00:18;95009.59;;;5.27;100.00
20620;BME280;10469;42.720;23.252;2023-04-08T06:02:45;95020.41;;;5.26;100.00
20620;BME280;10469;42.720;23.252;2023-04-08T06:05:14;95019.06;;;5.50;100.00
20620;BME280;10469;42.720;23.252;2023-04-08T06:07:40;95016.41;;;5.63;100.00
20620;BME280;10469;42.720;23.252;2023-04-08T06:10:07;95019.25;;;5.55;100.00
20620;BME280;10469;42.720;23.252;2023-04-08T06:12:36;95019.97;;;6.10;100.00
20620;BME280;10469;42.720;23.252;2023-04-08T06:15:06;95021.19;;;6.08;100.00
20620;BME280;10469;42.720;23.252;2023-04-08T06:17:36;94998.22;;;5.87;100.00
20620;BME280;10469;42.720;23.252;2023-04-08T06:20:03;95014.81;;;5.89;100.00
20620;BME280;10469;42.720;23.252;2023-04-08T06:22:29;95020.75;;;6.37;100.00
20620;BME280;10469;42.720;23.252;2023-04-08T06:24:55;95031.63;;;6.36;100.00
20620;BME280;10469;42.720;23.252;2023-04-08T06:27:22;95005.16;;;6.47;100.00
20620;BME280;10469;42.720;23.252;2023-04-08T06:29:48;95027.44;;;6.79;100.00
20620;BME280;10469;42.720;23.252;2023-04-08T06:32:17;95021.50;;;7.36;100.00
20620;BME280;10469;42.720;23.252;2023-04-08T06:34:44;95014.34;;;6.71;100.00
20620;BME280;10469;42.720;23.252;2023-04-08T06:37:10;95020.13;;;7.58;100.00
20620;BME280;10469;42.720;23.252;2023-04-08T06:39:36;95029.56;;;7.16;100.00
20620;BME280;10469;42.720;23.252;2023-04-08T06:42:02;95024.28;;;7.02;100.00
20620;BME280;10469;42.720;23.252;2023-04-08T06:44:28;95034.38;;;7.45;100.00
20620;BME280;10469;42.720;23.252;2023-04-08T06:46:54;95028.94;;;7.59;100.00
20620;BME280;10469;42.720;23.252;2023-04-08T06:49:20;95026.84;;;7.67;100.00
20620;BME280;10469;42.720;23.252;2023-04-08T06:51:46;95030.88;;;7.83;100.00
20620;BME280;10469;42.720;23.252;2023-04-08T06:54:13;95015.69;;;7.77;100.00
20620;BME280;10469;42.720;23.252;2023-04-08T06:56:39;95034.13;;;7.85;100.00
20620;BME280;10469;42.720;23.252;2023-04-08T06:59:05;95029.03;;;7.77;100.00
20620;BME280;10469;42.720;23.252;2023-04-08T07:01:30;95025.13;;;7.79;100.00
20620;BME280;10469;42.720;23.252;2023-04-08T07:03:57;95025.72;;;7.50;100.00
20620;BME280;10469;42.720;23.252;2023-04-08T07:06:22;95032.41;;;7.66;100.00
20620;BME280;10469;42.720;23.252;2023-04-08T07:08:51;95016.53;;;7.77;100.00
20620;BME280;10469;42.720;23.252;2023-04-08T07:11:20;95038.38;;;7.99;100.00
20620;BME280;10469;42.720;23.252;2023-04-08T07:13:46;95035.31;;;7.96;100.00
20620;BME280;10469;42.720;23.252;2023-04-08T07:16:12;95038.91;;;8.08;100.00
20620;BME280;10469;42.720;23.252;2023-04-08T07:18:37;95040.75;;;8.33;100.00
20620;BME280;10469;42.720;23.252;2023-04-08T07:21:05;95036.22;;;8.40;100.00
20620;BME280;10469;42.720;23.252;2023-04-08T07:23:31;95019.78;;;8.36;100.00
20620;BME280;10469;42.720;23.252;2023-04-08T07:26:02;95033.13;;;8.43;100.00
20620;BME280;10469;42.720;23.252;2023-04-08T07:28:28;95019.63;;;8.31;100.00
20620;BME280;10469;42.720;23.252;2023-04-08T07:30:54;95043.72;;;8.74;100.00
20620;BME280;10469;42.720;23.252;2023-04-08T07:33:21;95048.91;;;8.69;100.00
20620;BME280;10469;42.720;23.252;2023-04-08T07:35:48;95044.00;;;8.41;100.00
20620;BME280;10469;42.720;23.252;2023-04-08T07:38:16;95049.75;;;8.45;100.00
20620;BME280;10469;42.720;23.252;2023-04-08T07:40:42;95020.75;;;8.67;100.00
20620;BME280;10469;42.720;23.252;2023-04-08T07:43:08;95039.81;;;8.52;100.00
20620;BME280;10469;42.720;23.252;2023-04-08T07:45:34;95057.47;;;8.78;100.00
20620;BME280;10469;42.720;23.252;2023-04-08T07:47:59;95061.19;;;8.95;100.00
20620;BME280;10469;42.720;23.252;2023-04-08T07:50:26;95054.38;;;8.99;100.00
20620;BME280;10469;42.720;23.252;2023-04-08T07:52:51;95064.00;;;9.19;100.00
20620;BME280;10469;42.720;23.252;2023-04-08T07:55:17;95069.16;;;9.39;100.00
20620;BME280;10469;42.720;23.252;2023-04-08T07:57:43;95053.31;;;9.19;100.00
20620;BME280;10469;42.720;23.252;2023-04-08T08:00:10;95069.88;;;9.09;100.00
20620;BME280;10469;42.720;23.252;2023-04-08T08:02:36;95074.16;;;9.65;100.00
20620;BME280;10469;42.720;23.252;2023-04-08T08:05:03;95086.91;;;9.51;100.00
20620;BME280;10469;42.720;23.252;2023-04-08T08:07:32;95049.41;;;9.03;100.00
20620;BME280;10469;42.720;23.252;2023-04-08T08:09:57;95049.25;;;9.16;100.00
20620;BME280;10469;42.720;23.252;2023-04-08T08:12:23;95066.16;;;8.73;100.00
20620;BME280;10469;42.720;23.252;2023-04-08T08:15:00;95065.22;;;8.61;100.00
20620;BME280;10469;42.720;23.252;2023-04-08T08:17:38;95035.72;;;8.49;100.00
20620;BME280;10469;42.720;23.252;2023-04-08T08:20:04;95065.72;;;8.95;100.00
20620;BME280;10469;42.720;23.252;2023-04-08T08:22:30;95067.06;;;9.22;100.00
20620;BME280;10469;42.720;23.252;2023-04-08T08:24:56;95058.84;;;9.72;100.00
20620;BME280;10469;42.720;23.252;2023-04-08T08:27:22;95050.31;;;9.94;100.00
20620;BME280;10469;42.720;23.252;2023-04-08T08:29:49;95065.94;;;10.39;100.00
20620;BME280;10469;42.720;23.252;2023-04-08T08:32:16;95061.31;;;10.93;100.00
20620;BME280;10469;42.720;23.252;2023-04-08T08:34:42;95065.16;;;10.85;100.00
20620;BME280;10469;42.720;23.252;2023-04-08T08:37:08;95042.50;;;10.34;100.00
20620;BME280;10469;42.720;23.252;2023-04-08T08:39:34;95060.16;;;10.53;100.00
20620;BME280;10469;42.720;23.252;2023-04-08T08:41:59;95062.94;;;10.94;100.00
20620;BME280;10469;42.720;23.252;2023-04-08T08:44:25;95057.81;;;11.16;100.00
20620;BME280;10469;42.720;23.252;2023-04-08T08:46:52;95063.38;;;10.44;100.00
20620;BME280;10469;42.720;23.252;2023-04-08T08:49:17;95057.28;;;10.25;100.00
20620;BME280;10469;42.720;23.252;2023-04-08T08:51:47;95059.28;;;10.29;100.00
20620;BME280;10469;42.720;23.252;2023-04-08T08:54:14;95058.59;;;10.04;100.00
20620;BME280;10469;42.720;23.252;2023-04-08T08:56:40;95072.22;;;10.33;100.00
20620;BME280;10469;42.720;23.252;2023-04-08T08:59:08;95062.94;;;10.47;100.00
20620;BME280;10469;42.720;23.252;2023-04-08T09:01:35;95059.31;;;10.41;100.00
20620;BME280;10469;42.720;23.252;2023-04-08T09:04:18;95059.09;;;10.54;100.00
20620;BME280;10469;42.720;23.252;2023-04-08T09:06:49;95061.78;;;11.01;100.00
20620;BME280;10469;42.720;23.252;2023-04-08T09:09:19;95059.09;;;10.78;100.00
20620;BME280;10469;42.720;23.252;2023-04-08T09:11:46;95061.06;;;10.83;100.00
20620;BME280;10469;42.720;23.252;2023-04-08T09:14:23;95051.41;;;10.58;100.00
20620;BME280;10469;42.720;23.252;2023-04-08T09:16:50;95027.13;;;11.00;100.00
20620;BME280;10469;42.720;23.252;2023-04-08T09:19:17;95047.66;;;11.58;100.00
20620;BME280;10469;42.720;23.252;2023-04-08T09:21:44;95062.88;;;12.38;100.00
20620;BME280;10469;42.720;23.252;2023-04-08T09:24:27;95069.63;;;11.95;100.00
20620;BME280;10469;42.720;23.252;2023-04-08T09:26:54;95010.03;;;11.98;100.00
20620;BME280;10469;42.720;23.252;2023-04-08T09:29:23;95048.00;;;13.03;96.43
20620;BME280;10469;42.720;23.252;2023-04-08T09:31:53;95006.44;;;13.33;93.34
20620;BME280;10469;42.720;23.252;2023-04-08T09:34:26;95017.47;;;12.59;95.80
20620;BME280;10469;42.720;23.252;2023-04-08T09:36:53;95062.19;;;13.15;95.19
20620;BME280;10469;42.720;23.252;2023-04-08T09:39:19;95031.88;;;13.42;91.24
20620;BME280;10469;42.720;23.252;2023-04-08T09:41:47;95035.88;;;12.16;93.60
20620;BME280;10469;42.720;23.252;2023-04-08T09:44:14;95053.31;;;12.98;94.84
20620;BME280;10469;42.720;23.252;2023-04-08T09:47:00;95042.41;;;13.43;92.07
20620;BME280;10469;42.720;23.252;2023-04-08T09:49:38;95036.00;;;13.71;89.77
20620;BME280;10469;42.720;23.252;2023-04-08T09:52:14;95047.53;;;13.23;92.15
20620;BME280;10469;42.720;23.252;2023-04-08T09:55:03;95038.63;;;14.15;89.30
20620;BME280;10469;42.720;23.252;2023-04-08T10:00:10;94999.63;;;17.85;68.95
20620;BME280;10469;42.720;23.252;2023-04-08T10:05:07;94984.56;;;17.53;62.92
20620;BME280;10469;42.720;23.252;2023-04-08T10:07:37;95000.25;;;17.56;64.89
20620;BME280;10469;42.720;23.252;2023-04-08T10:10:04;94997.78;;;18.24;59.87
20620;BME280;10469;42.720;23.252;2023-04-08T10:12:32;95012.88;;;16.50;63.98
20620;BME280;10469;42.720;23.252;2023-04-08T10:20:42;95001.53;;;14.27;74.49
20620;BME280;10469;42.720;23.252;2023-04-08T10:23:12;95014.50;;;13.54;78.03
20620;BME280;10469;42.720;23.252;2023-04-08T10:25:45;94990.59;;;14.12;78.74
20620;BME280;10469;42.720;23.252;2023-04-08T10:30:47;94990.41;;;15.41;71.73
20620;BME280;10469;42.720;23.252;2023-04-08T10:33:20;95005.63;;;14.35;74.03
20620;BME280;10469;42.720;23.252;2023-04-08T10:35:52;94994.59;;;13.34;80.00
20620;BME280;10469;42.720;23.252;2023-04-08T10:38:19;94985.97;;;13.32;83.93
20620;BME280;10469;42.720;23.252;2023-04-08T10:40:51;94975.66;;;14.31;77.89
20620;BME280;10469;42.720;23.252;2023-04-08T10:43:19;94947.31;;;15.03;75.37
20620;BME280;10469;42.720;23.252;2023-04-08T10:45:45;94962.47;;;17.05;67.62
20620;BME280;10469;42.720;23.252;2023-04-08T10:48:19;94970.16;;;17.63;61.88
20620;BME280;10469;42.720;23.252;2023-04-08T10:51:03;94970.94;;;16.42;64.91
20620;BME280;10469;42.720;23.252;2023-04-08T10:58:31;94869.41;;;16.60;59.69
20620;BME280;10469;42.720;23.252;2023-04-08T11:01:04;94940.84;;;16.95;60.97
20620;BME280;10469;42.720;23.252;2023-04-08T11:03:32;94957.59;;;15.12;68.46
20620;BME280;10469;42.720;23.252;2023-04-08T11:05:59;94967.31;;;14.01;72.75
20620;BME280;10469;42.720;23.252;2023-04-08T11:08:29;94965.28;;;13.37;75.70
20620;BME280;10469;42.720;23.252;2023-04-08T11:10:57;94961.00;;;12.97;80.86
20620;BME280;10469;42.720;23.252;2023-04-08T11:13:23;94943.09;;;13.52;79.68
20620;BME280;10469;42.720;23.252;2023-04-08T11:15:49;94958.88;;;13.65;80.92
20620;BME280;10469;42.720;23.252;2023-04-08T11:18:17;94920.44;;;13.04;76.34
20620;BME280;10469;42.720;23.252;2023-04-08T11:20:44;94953.78;;;13.03;79.00
20620;BME280;10469;42.720;23.252;2023-04-08T11:23:14;94937.03;;;14.21;74.67
20620;BME280;10469;42.720;23.252;2023-04-08T11:25:41;94925.91;;;13.31;74.77
20620;BME280;10469;42.720;23.252;2023-04-08T11:28:07;94925.28;;;14.05;74.10
20620;BME280;10469;42.720;23.252;2023-04-08T11:30:33;94940.25;;;13.91;72.68
20620;BME280;10469;42.720;23.252;2023-04-08T11:33:06;94936.69;;;12.70;80.09
20620;BME280;10469;42.720;23.252;2023-04-08T11:35:33;94877.84;;;12.18;84.47
20620;BME280;10469;42.720;23.252;2023-04-08T11:38:03;94925.19;;;12.97;81.81
20620;BME280;10469;42.720;23.252;2023-04-08T11:40:30;94915.34;;;13.51;81.49
20620;BME280;10469;42.720;23.252;2023-04-08T11:42:57;94893.69;;;13.19;78.91
20620;BME280;10469;42.720;23.252;2023-04-08T11:45:22;94936.03;;;12.63;81.99
20620;BME280;10469;42.720;23.252;2023-04-08T11:47:51;94893.78;;;11.58;82.36
20620;BME280;10469;42.720;23.252;2023-04-08T11:50:31;94851.84;;;11.73;83.89
20620;BME280;10469;42.720;23.252;2023-04-08T11:53:00;94911.31;;;12.27;82.66
20620;BME280;10469;42.720;23.252;2023-04-08T11:55:28;94798.63;;;11.70;82.27
20620;BME280;10469;42.720;23.252;2023-04-08T11:57:55;94903.94;;;12.01;83.02
20620;BME280;10469;42.720;23.252;2023-04-08T12:00:22;94839.00;;;11.59;85.48
20620;BME280;10469;42.720;23.252;2023-04-08T12:02:50;94919.22;;;12.17;84.41
20620;BME280;10469;42.720;23.252;2023-04-08T12:05:20;94902.47;;;12.10;84.60
20620;BME280;10469;42.720;23.252;2023-04-08T12:07:47;94839.50;;;11.72;84.28
20620;BME280;10469;42.720;23.252;2023-04-08T12:10:13;94897.78;;;11.72;84.15
20620;BME280;10469;42.720;23.252;2023-04-08T12:12:39;94876.00;;;11.85;85.04
20620;BME280;10469;42.720;23.252;2023-04-08T12:15:06;94880.31;;;11.86;83.37
20620;BME280;10469;42.720;23.252;2023-04-08T12:17:38;94879.25;;;11.13;85.73
20620;BME280;10469;42.720;23.252;2023-04-08T12:20:05;94889.09;;;11.36;85.45
20620;BME280;10469;42.720;23.252;2023-04-08T12:22:32;94849.84;;;11.18;85.36
20620;BME280;10469;42.720;23.252;2023-04-08T12:24:58;94854.69;;;11.33;86.04
20620;BME280;10469;42.720;23.252;2023-04-08T12:27:24;94850.06;;;11.17;86.10
20620;BME280;10469;42.720;23.252;2023-04-08T12:29:50;94844.84;;;11.55;84.31
20620;BME280;10469;42.720;23.252;2023-04-08T12:32:17;94842.66;;;11.52;86.76
20620;BME280;10469;42.720;23.252;2023-04-08T12:34:43;94855.81;;;11.37;85.67
20620;BME280;10469;42.720;23.252;2023-04-08T12:37:09;94858.03;;;11.40;86.15
20620;BME280;10469;42.720;23.252;2023-04-08T12:39:35;94826.97;;;10.87;88.34
20620;BME280;10469;42.720;23.252;2023-04-08T12:42:01;94906.84;;;11.83;86.54
20620;BME280;10469;42.720;23.252;2023-04-08T12:44:28;94855.38;;;11.91;84.74
20620;BME280;10469;42.720;23.252;2023-04-08T12:46:54;94848.72;;;11.31;86.06
20620;BME280;10469;42.720;23.252;2023-04-08T12:49:20;94877.41;;;11.59;88.19
20620;BME280;10469;42.720;23.252;2023-04-08T12:51:45;94865.53;;;11.26;91.63
20620;BME280;10469;42.720;23.252;2023-04-08T12:54:11;94905.72;;;11.50;91.84
20620;BME280;10469;42.720;23.252;2023-04-08T12:56:37;94912.28;;;11.42;91.22
20620;BME280;10469;42.720;23.252;2023-04-08T12:59:06;94902.25;;;11.09;92.19
20620;BME280;10469;42.720;23.252;2023-04-08T13:01:32;94873.09;;;10.72;94.99
20620;BME280;10469;42.720;23.252;2023-04-08T13:03:58;94924.53;;;10.69;97.94
20620;BME280;10469;42.720;23.252;2023-04-08T13:06:24;94904.38;;;10.55;100.00
20620;BME280;10469;42.720;23.252;2023-04-08T13:08:50;94905.56;;;10.99;100.00
20620;BME280;10469;42.720;23.252;2023-04-08T13:11:17;94886.84;;;11.16;100.00
20620;BME280;10469;42.720;23.252;2023-04-08T13:13:43;94887.81;;;11.10;100.00
20620;BME280;10469;42.720;23.252;2023-04-08T13:16:11;94900.06;;;11.06;100.00
20620;BME280;10469;42.720;23.252;2023-04-08T13:18:39;94897.09;;;11.19;100.00